createdAt,value
2022-09-23T00:00:36.244Z,55.87
2022-09-23T00:04:52.228Z,56.42
2022-09-23T00:09:08.183Z,57.41
2022-09-23T00:13:25.336Z,55.82
2022-09-23T00:17:41.500Z,55.85
2022-09-23T00:21:57.508Z,55.54
2022-09-23T00:26:15.965Z,56.39
2022-09-23T00:30:32.558Z,56.50
2022-09-23T00:34:48.601Z,56.78
2022-09-23T00:39:04.808Z,56.04
2022-09-23T00:43:37.053Z,62.30
2022-09-23T00:48:01.598Z,56.82
2022-09-23T00:52:20.686Z,55.33
2022-09-23T00:56:37.456Z,55.61
2022-09-23T01:00:54.554Z,55.28
2022-09-23T01:05:10.904Z,56.68
2022-09-23T01:09:26.927Z,56.19
2022-09-23T01:14:04.491Z,57.08
2022-09-23T01:18:26.997Z,56.44
2022-09-23T01:22:51.786Z,55.81
2022-09-23T01:27:30.826Z,55.76
2022-09-23T01:32:00.326Z,55.66
2022-09-23T01:36:24.595Z,55.47
2022-09-23T01:41:14.168Z,56.16
2022-09-23T01:45:38.680Z,57.15
2022-09-23T01:50:28.035Z,56.19
2022-09-23T01:54:55.387Z,56.57
2022-09-23T01:59:17.231Z,56.53
2022-09-23T02:03:49.566Z,57.10
2022-09-23T02:08:18.634Z,56.61
2022-09-23T02:12:35.932Z,56.74
2022-09-23T02:16:55.947Z,57.61
2022-09-23T02:21:12.896Z,58.60
2022-09-23T02:26:03.140Z,57.80
2022-09-23T02:30:27.297Z,57.37
2022-09-23T02:35:12.515Z,57.91
2022-09-23T02:39:37.143Z,57.85
2022-09-23T02:44:00.949Z,58.07
2022-09-23T02:48:41.552Z,57.56
2022-09-23T02:52:58.359Z,57.32
2022-09-23T02:57:14.715Z,57.01
2022-09-23T03:01:33.914Z,56.86
2022-09-23T03:05:57.180Z,57.26
2022-09-23T03:10:42.115Z,57.16
2022-09-23T03:15:25.996Z,57.42
2022-09-23T03:19:44.693Z,57.52
2022-09-23T03:24:02.846Z,57.31
2022-09-23T03:28:22.210Z,57.74
2022-09-23T03:32:38.544Z,57.71
2022-09-23T03:37:11.001Z,57.58
2022-09-23T03:41:35.085Z,57.56
2022-09-23T03:45:53.565Z,58.08
2022-09-23T03:50:09.991Z,57.89
2022-09-23T03:54:29.837Z,57.91
2022-09-23T03:58:46.682Z,59.94
2022-09-23T04:03:02.836Z,60.17
2022-09-23T04:07:19.291Z,61.25
2022-09-23T04:11:35.570Z,62.21
2022-09-23T04:15:51.940Z,62.30
2022-09-23T04:20:08.237Z,61.25
2022-09-23T04:24:24.219Z,61.72
2022-09-23T04:28:40.146Z,61.27
2022-09-23T04:32:56.096Z,60.81
2022-09-23T04:37:12.123Z,61.71
2022-09-23T04:41:28.092Z,60.98
2022-09-23T04:45:45.077Z,60.22
2022-09-23T04:50:01.012Z,60.28
2022-09-23T04:54:17.087Z,60.00
2022-09-23T04:58:34.650Z,59.11
2022-09-23T05:02:51.403Z,58.09
2022-09-23T05:07:07.636Z,58.75
2022-09-23T05:11:24.504Z,58.57
2022-09-23T05:15:40.429Z,58.99
2022-09-23T05:19:58.045Z,60.17
2022-09-23T05:24:14.060Z,60.52
2022-09-23T05:28:33.068Z,61.09
2022-09-23T05:32:49.076Z,62.19
2022-09-23T05:37:05.509Z,63.76
2022-09-23T05:41:23.320Z,64.29
2022-09-23T05:45:39.315Z,63.65
2022-09-23T05:49:59.953Z,63.53
2022-09-23T05:54:16.538Z,62.46
2022-09-23T05:58:32.595Z,61.60
2022-09-23T06:02:49.450Z,61.20
2022-09-23T06:07:05.594Z,60.84
2022-09-23T06:11:21.686Z,60.82
2022-09-23T06:15:38.386Z,60.85
2022-09-23T06:19:54.416Z,60.60
2022-09-23T06:24:13.726Z,62.43
2022-09-23T06:28:33.077Z,63.52
2022-09-23T06:32:52.988Z,63.15
2022-09-23T06:37:17.083Z,63.16
2022-09-23T06:41:35.407Z,63.51
2022-09-23T06:45:59.078Z,62.69
2022-09-23T06:50:15.135Z,61.47
2022-09-23T06:54:31.569Z,60.64
2022-09-23T06:58:47.944Z,61.37
2022-09-23T07:03:08.430Z,62.26
2022-09-23T07:07:24.683Z,61.29
2022-09-23T07:11:40.865Z,60.01
2022-09-23T07:16:02.350Z,63.90
2022-09-23T07:20:18.799Z,60.22
2022-09-23T07:24:34.815Z,59.35
2022-09-23T07:28:55.549Z,61.71
2022-09-23T07:33:26.210Z,61.03
2022-09-23T07:37:43.932Z,60.68
2022-09-23T07:41:59.959Z,59.02
2022-09-23T07:46:17.842Z,59.41
2022-09-23T07:50:33.983Z,57.98
2022-09-23T07:54:49.962Z,57.59
2022-09-23T07:59:11.494Z,56.44
2022-09-23T08:03:27.487Z,58.21
2022-09-23T08:07:43.499Z,58.12
2022-09-23T08:11:59.962Z,57.00
2022-09-23T08:16:15.980Z,58.19
2022-09-23T08:20:48.142Z,56.91
2022-09-23T08:25:06.589Z,54.70
2022-09-23T08:29:25.602Z,52.82
2022-09-23T08:33:41.949Z,53.92
2022-09-23T08:37:58.081Z,51.67
2022-09-23T08:42:27.974Z,51.16
2022-09-23T08:46:52.816Z,50.37
2022-09-23T08:51:17.823Z,49.97
2022-09-23T08:55:37.860Z,48.05
2022-09-23T08:59:54.758Z,47.75
2022-09-23T09:04:28.057Z,46.83
2022-09-23T09:08:47.281Z,47.91
2022-09-23T09:13:37.107Z,45.66
2022-09-23T09:18:02.506Z,45.83
2022-09-23T09:22:32.128Z,43.41
2022-09-23T09:26:48.308Z,40.80
2022-09-23T09:31:22.258Z,40.19
2022-09-23T09:36:01.376Z,40.60
2022-09-23T09:40:17.652Z,39.37
2022-09-23T09:44:37.367Z,40.22
2022-09-23T09:49:23.262Z,39.81
2022-09-23T09:53:39.231Z,40.54
2022-09-23T09:58:04.150Z,38.92
2022-09-23T10:02:35.938Z,38.17
2022-09-23T10:07:24.632Z,38.45
2022-09-23T10:11:41.406Z,39.38
2022-09-23T10:16:00.093Z,38.79
2022-09-23T10:20:16.275Z,40.43
2022-09-23T10:24:36.433Z,39.98
2022-09-23T10:28:55.831Z,39.11
2022-09-23T10:33:27.966Z,36.59
2022-09-23T10:37:49.531Z,40.14
2022-09-23T10:42:46.899Z,37.73
2022-09-23T10:47:24.100Z,36.76
2022-09-23T10:51:59.401Z,39.15
2022-09-23T10:56:39.882Z,37.68
2022-09-23T11:01:20.005Z,35.48
2022-09-23T11:06:11.394Z,36.10
2022-09-23T11:10:55.990Z,35.86
2022-09-23T11:15:42.857Z,33.39
2022-09-23T11:20:21.969Z,30.10
2022-09-23T11:24:41.590Z,29.45
2022-09-23T11:29:17.192Z,28.71
2022-09-23T11:33:59.703Z,28.10
2022-09-23T11:38:18.874Z,30.67
2022-09-23T11:42:45.602Z,31.44
2022-09-23T11:47:21.303Z,30.13
2022-09-23T11:51:59.201Z,31.02
2022-09-23T11:56:36.439Z,30.30
2022-09-23T12:01:01.273Z,31.21
2022-09-23T12:05:22.406Z,27.67
2022-09-23T12:09:58.661Z,27.36
2022-09-23T12:14:31.120Z,29.16
2022-09-23T12:19:11.865Z,27.63
2022-09-23T12:23:49.452Z,26.93
2022-09-23T12:28:11.798Z,24.28
2022-09-23T12:32:27.991Z,22.53
2022-09-23T12:36:44.094Z,23.17
2022-09-23T12:41:00.613Z,24.65
2022-09-23T12:45:38.666Z,24.79
2022-09-23T12:49:56.630Z,21.98
2022-09-23T12:54:24.433Z,22.81
2022-09-23T12:58:43.409Z,22.87
2022-09-23T13:03:19.254Z,24.69
2022-09-23T13:07:35.513Z,24.65
2022-09-23T13:11:53.166Z,25.90
2022-09-23T13:16:34.445Z,24.98
2022-09-23T13:20:51.839Z,25.67
2022-09-23T13:25:18.291Z,25.65
2022-09-23T13:29:55.646Z,28.20
2022-09-23T13:34:13.893Z,27.45
2022-09-23T13:38:32.174Z,28.33
2022-09-23T13:42:53.716Z,28.05
2022-09-23T13:47:13.723Z,28.39
2022-09-23T13:51:35.264Z,28.92
2022-09-23T13:56:07.799Z,29.94
2022-09-23T14:00:25.479Z,31.88
2022-09-23T14:04:41.819Z,31.60
2022-09-23T14:09:00.281Z,32.15
2022-09-23T14:13:25.909Z,32.65
2022-09-23T14:18:06.535Z,33.74
2022-09-23T14:22:28.244Z,32.41
2022-09-23T14:26:47.549Z,33.79
2022-09-23T14:31:03.654Z,33.05
2022-09-23T14:35:38.192Z,32.63
2022-09-23T14:39:57.783Z,33.79
2022-09-23T14:44:25.243Z,34.27
2022-09-23T14:48:41.291Z,33.15
2022-09-23T14:52:57.338Z,28.95
2022-09-23T14:57:28.544Z,29.95
2022-09-23T15:01:44.664Z,29.45
2022-09-23T15:06:09.201Z,29.16
2022-09-23T15:10:33.857Z,29.52
2022-09-23T15:14:55.219Z,29.89
2022-09-23T15:19:19.085Z,32.32
2022-09-23T15:23:39.010Z,32.45
2022-09-23T15:28:16.868Z,32.42
2022-09-23T15:32:32.824Z,33.10
2022-09-23T15:36:49.734Z,33.56
2022-09-23T15:41:07.188Z,31.68
2022-09-23T15:45:38.652Z,32.06
2022-09-23T15:49:54.699Z,30.26
2022-09-23T15:54:13.911Z,30.56
2022-09-23T15:58:30.097Z,28.07
2022-09-23T16:02:48.218Z,29.36
2022-09-23T16:07:05.683Z,27.11
2022-09-23T16:11:34.032Z,26.94
2022-09-23T16:15:50.235Z,25.65
2022-09-23T16:20:06.842Z,25.39
2022-09-23T16:24:27.919Z,26.13
2022-09-23T16:28:45.183Z,26.93
2022-09-23T16:33:02.014Z,30.60
2022-09-23T16:37:21.474Z,32.38
2022-09-23T16:41:37.558Z,36.21
2022-09-23T16:45:54.246Z,38.20
2022-09-23T16:50:11.663Z,40.70
2022-09-23T16:54:28.037Z,41.75
2022-09-23T16:58:44.742Z,42.86
2022-09-23T17:03:20.388Z,42.70
2022-09-23T17:07:36.355Z,44.69
2022-09-23T17:12:09.240Z,44.96
2022-09-23T17:16:30.300Z,44.50
2022-09-23T17:20:56.831Z,45.47
2022-09-23T17:25:12.954Z,45.41
2022-09-23T17:29:29.280Z,45.03
2022-09-23T17:33:45.604Z,44.63
2022-09-23T17:38:01.643Z,44.74
2022-09-23T17:42:18.534Z,44.88
2022-09-23T17:46:34.562Z,45.60
2022-09-23T17:51:02.353Z,45.34
2022-09-23T17:55:19.296Z,46.38
2022-09-23T17:59:35.415Z,46.24
2022-09-23T18:03:59.725Z,46.53
2022-09-23T18:08:16.163Z,46.69
2022-09-23T18:12:33.540Z,46.56
2022-09-23T18:16:51.842Z,46.82
2022-09-23T18:21:08.643Z,46.99
2022-09-23T18:25:38.766Z,47.36
2022-09-23T18:29:55.458Z,47.18
2022-09-23T18:34:14.066Z,46.61
2022-09-23T18:38:30.446Z,46.20
2022-09-23T18:42:47.658Z,45.77
2022-09-23T18:47:03.721Z,45.80
2022-09-23T18:51:29.302Z,47.26
2022-09-23T18:55:45.386Z,47.26
2022-09-23T19:00:01.604Z,47.99
2022-09-23T19:04:23.740Z,47.86
2022-09-23T19:08:41.796Z,48.38
2022-09-23T19:12:58.082Z,47.89
2022-09-23T19:17:14.116Z,47.18
2022-09-23T19:21:38.933Z,47.93
2022-09-23T19:26:07.057Z,48.00
2022-09-23T19:30:27.806Z,47.80
2022-09-23T19:35:01.032Z,48.68
2022-09-23T19:39:36.973Z,48.50
2022-09-23T19:44:08.466Z,49.19
2022-09-23T19:48:25.449Z,48.26
2022-09-23T19:52:43.502Z,48.84
2022-09-23T19:57:01.358Z,48.71
2022-09-23T20:01:17.531Z,48.43
2022-09-23T20:05:34.619Z,50.09
2022-09-23T20:09:52.219Z,50.38
2022-09-23T20:14:10.460Z,49.79
2022-09-23T20:18:26.841Z,49.96
2022-09-23T20:22:43.049Z,50.48
2022-09-23T20:27:11.360Z,49.52
2022-09-23T20:31:32.344Z,50.24
2022-09-23T20:35:53.375Z,49.64
2022-09-23T20:40:10.469Z,49.79
2022-09-23T20:44:26.556Z,50.23
2022-09-23T20:48:42.579Z,51.11
2022-09-23T20:52:58.646Z,50.78
2022-09-23T20:57:16.389Z,50.49
2022-09-23T21:01:37.127Z,50.87
2022-09-23T21:05:53.273Z,50.81
2022-09-23T21:10:10.609Z,50.38
2022-09-23T21:14:26.695Z,50.08
2022-09-23T21:18:43.029Z,52.19
2022-09-23T21:22:58.954Z,51.64
2022-09-23T21:27:15.119Z,52.21
2022-09-23T21:31:36.092Z,53.00
2022-09-23T21:35:58.547Z,52.47
2022-09-23T21:40:33.184Z,51.66
2022-09-23T21:44:49.140Z,52.32
2022-09-23T21:49:05.290Z,51.77
2022-09-23T21:53:21.535Z,51.93
2022-09-23T21:57:38.769Z,52.58
2022-09-23T22:01:54.755Z,54.71
2022-09-23T22:06:20.353Z,52.58
2022-09-23T22:10:37.628Z,51.97
2022-09-23T22:14:53.539Z,51.35
2022-09-23T22:19:10.983Z,52.11
2022-09-23T22:23:26.971Z,52.47
2022-09-23T22:28:02.988Z,53.26
2022-09-23T22:32:40.617Z,53.69
2022-09-23T22:36:57.833Z,53.11
2022-09-23T22:41:15.315Z,53.27
2022-09-23T22:45:31.282Z,53.88
2022-09-23T22:49:47.986Z,54.69
2022-09-23T22:54:04.087Z,54.49
2022-09-23T22:58:31.621Z,53.62
2022-09-23T23:02:49.238Z,54.20
2022-09-23T23:07:06.134Z,54.00
2022-09-23T23:11:22.149Z,53.71
2022-09-23T23:15:41.323Z,53.67
2022-09-23T23:19:58.082Z,53.60
2022-09-23T23:24:19.682Z,54.08
2022-09-23T23:28:35.645Z,53.54
2022-09-23T23:32:52.054Z,53.70
2022-09-23T23:37:07.991Z,53.48
2022-09-23T23:41:24.030Z,54.72
2022-09-23T23:45:40.007Z,53.62
2022-09-23T23:49:55.944Z,54.13
2022-09-23T23:54:12.505Z,55.29
2022-09-23T23:58:29.261Z,54.92
